• Join FlightAware (Why Join?)
  • Login
  • US Flag 
07:58AM EDT


 

Airport Tracker/Info


-or-


 

Live Flight TrackerFlight Track Log ✈ PDT4373 ✈ 22-Oct-2013 ✈ KPHL - KBGM

Flight Track Log - Related Links

Times and Time Zones

All times are in EDT time to prevent confusion due to time zone crossing. See the PDT4373 flight status page for this flight to view local times or setup timezone preferences in your user account.

Time Position Orientation Groundspeed Altitude Reporting Facility
EDT Latitude Longitude Course Direction KTS MPH feet Rate Location/Type
10:01AM 39.9000 -75.2333 303° West 128 147 400  Level Philadelphia TRACON
10:02AM 39.9167 -75.2667 303° West 132 152 1,500 1,320 Climbing Philadelphia TRACON
10:03AM 39.9167 -75.3167 270° West 144 166 2,700 1,140 Climbing Philadelphia TRACON
10:04AM 39.9333 -75.3667 294° West 146 168 3,800 1,020 Climbing Philadelphia TRACON
10:05AM 39.9500 -75.4000 303° West 146 168 4,800 960 Climbing Philadelphia TRACON
10:06AM 39.9667 -75.4667 288° West 154 177 5,800 1,020 Climbing Philadelphia TRACON
10:07AM 39.9500 -75.5167 247° West 151 174 6,900 1,080 Climbing Philadelphia TRACON
10:08AM 39.9500 -75.5667 270° West 147 169 8,000 840 Climbing Philadelphia TRACON
10:09AM 40.0000 -75.5833 346° North 236 272 8,600 540 Climbing Philadelphia TRACON
10:09AM 40.0369 -75.5642 22° Northeast 225 259 8,900 240 Climbing New York Center
10:10AM 40.0972 -75.5683 357° North 243 280 9,000  Climbing New York Center
10:11AM 40.1683 -75.5653 North 266 306 9,000  Level New York Center
10:12AM 40.2350 -75.5644 North 261 300 9,000 780 Level New York Center
10:13AM 40.2700 -75.6239 308° West 198 228 10,600 1,320 Climbing New York Center
10:14AM 40.3144 -75.6569 330° Northwest 181 208 11,700 780 Climbing New York Center
10:15AM 40.3589 -75.6928 328° Northwest 176 203 12,200 780 Climbing New York Center
10:16AM 40.3928 -75.7281 322° Northwest 181 208 13,300 900 Climbing New York Center
10:17AM 40.4331 -75.7664 324° Northwest 181 208 14,000 300 Climbing New York Center
10:18AM 40.4894 -75.8114 329° Northwest 202 232 14,000  Level New York Center
10:19AM 40.5436 -75.8564 328° Northwest 221 254 14,000  Level New York Center
10:20AM 40.6022 -75.9017 330° Northwest 232 267 14,000  Level New York Center
10:21AM 40.6628 -75.9472 330° Northwest 237 273 14,000  Level New York Center
10:22AM 40.7128 -75.9919 326° Northwest 242 278 14,000  Level New York Center
10:23AM 40.7733 -76.0378 330° Northwest 248 285 14,000  Level New York Center
10:24AM 40.8311 -76.0944 323° Northwest 243 280 14,000  Level New York Center
10:25AM 40.8894 -76.1428 328° Northwest 243 280 14,000  Level New York Center
10:26AM 40.9442 -76.1800 333° Northwest 243 280 14,000  Level New York Center
10:27AM 41.0128 -76.2269 333° Northwest 249 287 14,000  Level New York Center
10:28AM 41.0881 -76.2192 North 271 312 14,000  Level New York Center
10:29AM 41.1678 -76.2089 North 277 319 14,000  Level New York Center
10:30AM 41.2367 -76.2064 North 277 319 14,000  Level New York Center
10:31AM 41.3161 -76.1961 North 277 319 14,000  Level New York Center
10:32AM 41.4019 -76.1892 North 277 319 14,000 -120 Level New York Center
10:33AM 41.4789 -76.1897 360° North 277 319 13,800 -840 Descending New York Center
10:34AM 41.5628 -76.1800 North 285 328 12,400 -1,500 Descending New York Center
10:35AM 41.6319 -76.1244 31° Northeast 296 341 10,900 -1,500 Descending New York Center
10:36AM 41.7053 -76.0664 31° Northeast 308 354 9,500 -1,560 Descending New York Center
10:37AM 41.7828 -76.0086 29° Northeast 300 345 7,800 -1,380 Descending New York Center
10:38AM 41.8500 -75.9500 33° Northeast 294 338 6,800 -960 Descending New York Center
10:39AM 41.9189 -75.8939 31° Northeast 289 333 5,900 -960 Descending New York Center
10:40AM 41.9750 -75.8481 31° Northeast 273 314 4,900 -840 Descending New York Center
10:41AM 42.0317 -75.8386 North 229 264 4,300 -480 Descending New York Center
10:42AM 42.0700 -75.8694 329° Northwest 169 194 4,000 -300 Descending New York Center
10:43AM 42.1103 -75.9006 330° Northwest 164 189 3,700 -600 Descending New York Center
10:44AM 42.1486 -75.9314 329° Northwest 164 189 2,900 -780 Descending New York Center
10:45AM 42.1767 -75.9531 330° Northwest 145 167 2,200 -720 Descending New York Center